Portada
METAR-TAF:

METAR-TAF

Aeropuertos :

Hagi, Japón

latitud: 34-40N, longitud: 131-48E, altitud: 54 m

Observación

El informe se hizo hace 3 horas y 20 minutos, a las 10:00 UTC
Viento 2 kt del sureste
Temperatura 9°C
Humedad 93%
Presión 1024 hPa
Visibilidad 10 km o más
Escasas nubes a una altura de 3000 ft
Nubes dispersas a una altura de 4000 ft

METAR: RJOW 021000Z 14002KT 9999 FEW030 SCT040 09/08 Q1024

Hora: 22:20 (13:20 UTC)


TAF: falta

Observaciones y pronósticos meteorológicos de más de 4000 aeropuertos (mensajes METAR y TAF).

Los puntos amarillos y rojos representan las estaciones disponibles.

Ponga el ratón en el punto deseado para ver el nombre de la estación.

Haga clic para ver las observaciones y los pronósticos meteorológicos.

Para cambiar el mapa : haga clic en los botones verdes con una cruz de color negro para hacer un zoom, en el botón verde con un guión para alejar o en las flechas verdes para mapas adyacentes.


METAR-TAF: